createdAt,value
2019-05-29T00:00:56.307Z,100.00
2019-05-29T00:03:27.233Z,100.00
2019-05-29T00:05:58.508Z,100.00
2019-05-29T00:08:29.522Z,100.00
2019-05-29T00:11:00.654Z,100.00
2019-05-29T00:13:31.564Z,100.00
2019-05-29T00:16:02.724Z,100.00
2019-05-29T00:18:33.797Z,100.00
2019-05-29T00:21:06.259Z,100.00
2019-05-29T00:23:37.256Z,100.00
2019-05-29T00:26:08.301Z,100.00
2019-05-29T00:28:39.390Z,100.00
2019-05-29T00:31:13.977Z,100.00
2019-05-29T00:33:45.321Z,100.00
2019-05-29T00:36:16.557Z,100.00
2019-05-29T00:38:47.944Z,100.00
2019-05-29T00:41:19.010Z,100.00
2019-05-29T00:43:50.300Z,100.00
2019-05-29T00:46:21.356Z,100.00
2019-05-29T00:48:52.585Z,100.00
2019-05-29T00:51:23.558Z,100.00
2019-05-29T00:53:54.971Z,100.00
2019-05-29T00:56:26.022Z,100.00
2019-05-29T00:58:56.243Z,100.00
2019-05-29T01:01:27.340Z,100.00
2019-05-29T01:03:58.336Z,100.00
2019-05-29T01:06:29.441Z,100.00
2019-05-29T01:09:00.510Z,100.00
2019-05-29T01:11:31.651Z,100.00
2019-05-29T01:14:02.622Z,100.00
2019-05-29T01:16:33.858Z,100.00
2019-05-29T01:19:22.928Z,100.00
2019-05-29T01:21:55.463Z,100.00
2019-05-29T01:24:27.188Z,100.00
2019-05-29T01:26:58.467Z,100.00
2019-05-29T01:29:29.451Z,100.00
2019-05-29T01:32:00.884Z,100.00
2019-05-29T01:34:31.796Z,100.00
2019-05-29T01:37:01.991Z,100.00
2019-05-29T01:39:33.174Z,100.00
2019-05-29T01:42:04.215Z,100.00
2019-05-29T01:44:35.611Z,100.00
2019-05-29T01:47:06.632Z,100.00
2019-05-29T01:49:37.786Z,100.00
2019-05-29T01:52:08.761Z,100.00
2019-05-29T01:54:40.588Z,100.00
2019-05-29T01:57:11.667Z,100.00
2019-05-29T01:59:42.869Z,100.00
2019-05-29T02:02:13.893Z,100.00
2019-05-29T02:04:45.297Z,100.00
2019-05-29T02:07:16.167Z,100.00
2019-05-29T02:09:46.315Z,100.00
2019-05-29T02:12:19.286Z,100.00
2019-05-29T02:14:49.348Z,100.00
2019-05-29T02:17:21.792Z,100.00
2019-05-29T02:19:52.860Z,100.00
2019-05-29T02:22:24.875Z,100.00
2019-05-29T02:24:56.140Z,100.00
2019-05-29T02:27:27.714Z,100.00
2019-05-29T02:29:58.755Z,100.00
2019-05-29T02:32:30.009Z,100.00
2019-05-29T02:35:00.971Z,100.00
2019-05-29T02:37:32.271Z,100.00
2019-05-29T02:40:04.435Z,100.00
2019-05-29T02:42:35.678Z,100.00
2019-05-29T02:45:08.584Z,100.00
2019-05-29T02:47:38.766Z,100.00
2019-05-29T02:50:10.404Z,100.00
2019-05-29T02:52:41.356Z,100.00
2019-05-29T02:55:12.734Z,100.00
2019-05-29T02:57:43.740Z,100.00
2019-05-29T03:00:15.267Z,100.00
2019-05-29T03:02:46.291Z,100.00
2019-05-29T03:05:17.585Z,100.00
2019-05-29T03:07:48.874Z,100.00
2019-05-29T03:10:20.142Z,100.00
2019-05-29T03:12:51.329Z,100.00
2019-05-29T03:15:23.563Z,100.00
2019-05-29T03:17:55.061Z,100.00
2019-05-29T03:20:25.981Z,100.00
2019-05-29T03:22:57.293Z,100.00
2019-05-29T03:25:28.467Z,100.00
2019-05-29T03:27:59.677Z,100.00
2019-05-29T03:30:36.802Z,100.00
2019-05-29T03:33:03.514Z,100.00
2019-05-29T03:35:43.965Z,100.00
2019-05-29T03:38:07.399Z,100.00
2019-05-29T03:40:38.741Z,100.00
2019-05-29T03:43:09.941Z,100.00
2019-05-29T03:45:40.951Z,100.00
2019-05-29T03:48:12.773Z,100.00
2019-05-29T03:50:43.838Z,100.00
2019-05-29T03:53:14.890Z,100.00
2019-05-29T03:55:45.930Z,100.00
2019-05-29T03:58:16.175Z,100.00
2019-05-29T04:00:48.874Z,100.00
2019-05-29T04:03:20.031Z,100.00
2019-05-29T04:05:51.102Z,100.00
2019-05-29T04:08:22.003Z,100.00
2019-05-29T04:10:53.724Z,100.00
2019-05-29T04:13:24.687Z,100.00
2019-05-29T04:15:58.654Z,100.00
2019-05-29T04:18:31.589Z,100.00
2019-05-29T04:21:03.616Z,100.00
2019-05-29T04:23:36.270Z,100.00
2019-05-29T04:26:09.096Z,100.00
2019-05-29T04:28:40.234Z,100.00
2019-05-29T04:31:10.438Z,100.00
2019-05-29T04:33:41.566Z,100.00
2019-05-29T04:36:12.522Z,100.00
2019-05-29T04:38:43.580Z,100.00
2019-05-29T04:41:14.637Z,100.00
2019-05-29T04:43:45.799Z,100.00
2019-05-29T04:46:16.778Z,100.00
2019-05-29T04:48:47.853Z,100.00
2019-05-29T04:51:20.218Z,100.00
2019-05-29T04:53:51.443Z,100.00
2019-05-29T04:56:22.416Z,100.00
2019-05-29T04:58:53.690Z,100.00
2019-05-29T05:01:24.711Z,100.00
2019-05-29T05:03:54.811Z,100.00
2019-05-29T05:06:25.981Z,100.00
2019-05-29T05:08:56.994Z,100.00
2019-05-29T05:11:29.355Z,100.00
2019-05-29T05:14:01.749Z,100.00
2019-05-29T05:16:33.665Z,100.00
2019-05-29T05:19:04.794Z,100.00
2019-05-29T05:21:36.092Z,100.00
2019-05-29T05:24:07.079Z,100.00
2019-05-29T05:26:38.520Z,99.30
2019-05-29T05:29:09.478Z,98.84
2019-05-29T05:31:41.006Z,99.12
2019-05-29T05:34:12.246Z,99.99
2019-05-29T05:36:44.432Z,99.76
2019-05-29T05:39:15.366Z,98.74
2019-05-29T05:41:45.683Z,99.53
2019-05-29T05:44:17.152Z,98.92
2019-05-29T05:46:48.190Z,97.36
2019-05-29T05:49:19.439Z,96.25
2019-05-29T05:51:50.331Z,94.30
2019-05-29T05:54:21.642Z,93.96
2019-05-29T05:56:53.681Z,94.32
2019-05-29T05:59:27.170Z,94.91
2019-05-29T06:01:58.108Z,94.81
2019-05-29T06:04:35.957Z,94.88
2019-05-29T06:07:06.937Z,95.16
2019-05-29T06:09:38.279Z,95.04
2019-05-29T06:12:09.170Z,94.03
2019-05-29T06:14:40.563Z,93.22
2019-05-29T06:17:12.042Z,92.58
2019-05-29T06:19:43.189Z,91.41
2019-05-29T06:22:14.464Z,91.00
2019-05-29T06:24:45.476Z,88.47
2019-05-29T06:27:16.696Z,88.19
2019-05-29T06:29:47.681Z,87.48
2019-05-29T06:32:18.910Z,86.82
2019-05-29T06:34:49.820Z,85.97
2019-05-29T06:37:21.029Z,84.63
2019-05-29T06:39:52.012Z,84.65
2019-05-29T06:42:23.268Z,84.01
2019-05-29T06:44:54.235Z,84.69
2019-05-29T06:47:24.418Z,85.54
2019-05-29T06:49:55.565Z,86.14
2019-05-29T06:52:26.487Z,86.94
2019-05-29T06:54:57.953Z,88.56
2019-05-29T06:57:28.994Z,88.60
2019-05-29T07:00:00.410Z,88.72
2019-05-29T07:02:31.985Z,89.39
2019-05-29T07:05:03.677Z,89.04
2019-05-29T07:07:35.967Z,88.05
2019-05-29T07:10:07.602Z,88.59
2019-05-29T07:12:38.595Z,88.58
2019-05-29T07:15:10.114Z,88.73
2019-05-29T07:17:40.991Z,87.97
2019-05-29T07:20:14.181Z,87.96
2019-05-29T07:22:45.237Z,87.00
2019-05-29T07:25:15.538Z,86.91
2019-05-29T07:27:47.058Z,86.33
2019-05-29T07:30:19.978Z,86.38
2019-05-29T07:32:57.283Z,85.77
2019-05-29T07:35:24.335Z,85.36
2019-05-29T07:37:55.669Z,85.78
2019-05-29T07:40:26.857Z,85.02
2019-05-29T07:42:58.164Z,84.96
2019-05-29T07:45:29.139Z,83.19
2019-05-29T07:48:00.471Z,81.23
2019-05-29T07:50:31.481Z,79.98
2019-05-29T07:53:02.649Z,78.48
2019-05-29T07:55:33.570Z,77.29
2019-05-29T07:58:03.740Z,77.24
2019-05-29T08:00:37.945Z,76.84
2019-05-29T08:03:10.407Z,76.19
2019-05-29T08:05:46.007Z,75.28
2019-05-29T08:08:14.939Z,73.68
2019-05-29T08:10:47.544Z,72.49
2019-05-29T08:13:18.666Z,70.71
2019-05-29T08:16:01.571Z,71.02
2019-05-29T08:18:22.816Z,68.66
2019-05-29T08:20:54.010Z,67.48
2019-05-29T08:23:25.041Z,66.28
2019-05-29T08:25:56.210Z,65.16
2019-05-29T08:28:27.191Z,64.08
2019-05-29T08:31:02.693Z,64.52
2019-05-29T08:33:33.792Z,64.28
2019-05-29T08:36:04.047Z,63.52
2019-05-29T08:38:36.393Z,63.13
2019-05-29T08:41:07.363Z,63.85
2019-05-29T08:43:38.463Z,63.12
2019-05-29T08:46:09.365Z,63.36
2019-05-29T08:48:41.666Z,60.94
2019-05-29T08:51:12.784Z,62.68
2019-05-29T08:53:44.185Z,61.22
2019-05-29T08:56:15.321Z,61.68
2019-05-29T08:58:46.783Z,61.32
2019-05-29T09:01:17.811Z,60.77
2019-05-29T09:03:49.059Z,59.32
2019-05-29T09:06:20.099Z,59.22
2019-05-29T09:08:52.092Z,59.22
2019-05-29T09:11:23.396Z,58.16
2019-05-29T09:13:54.466Z,57.23
2019-05-29T09:16:25.790Z,57.25
2019-05-29T09:18:56.759Z,57.73
2019-05-29T09:21:27.856Z,56.77
2019-05-29T09:23:59.237Z,57.32
2019-05-29T09:26:30.344Z,58.73
2019-05-29T09:29:01.324Z,59.93
2019-05-29T09:31:32.508Z,60.80
2019-05-29T09:34:03.591Z,61.86
2019-05-29T09:36:34.871Z,62.43
2019-05-29T09:39:08.502Z,64.18
2019-05-29T09:41:38.535Z,64.21
2019-05-29T09:44:25.115Z,64.76
2019-05-29T09:46:42.483Z,65.86
2019-05-29T09:49:13.725Z,65.29
2019-05-29T09:51:44.787Z,65.42
2019-05-29T09:54:15.990Z,65.95
2019-05-29T09:56:46.923Z,65.79
2019-05-29T09:59:18.157Z,65.91
2019-05-29T10:01:49.144Z,65.51
2019-05-29T10:04:20.379Z,65.76
2019-05-29T10:06:51.266Z,65.76
2019-05-29T10:09:22.591Z,65.59
2019-05-29T10:11:58.494Z,65.51
2019-05-29T10:14:27.992Z,65.81
2019-05-29T10:17:04.513Z,66.18
2019-05-29T10:19:30.809Z,65.94
2019-05-29T10:22:03.938Z,66.40
2019-05-29T10:24:34.727Z,66.50
2019-05-29T10:27:06.787Z,65.71
2019-05-29T10:29:37.800Z,64.92
2019-05-29T10:32:08.887Z,62.73
2019-05-29T10:34:40.041Z,62.59
2019-05-29T10:37:11.210Z,62.54
2019-05-29T10:39:42.808Z,63.80
2019-05-29T10:42:14.166Z,63.46
2019-05-29T10:44:45.132Z,64.19
2019-05-29T10:47:16.351Z,64.89
2019-05-29T10:49:47.706Z,65.17
2019-05-29T10:52:17.800Z,64.11
2019-05-29T10:54:48.824Z,63.84
2019-05-29T10:57:19.864Z,63.05
2019-05-29T10:59:51.018Z,61.20
2019-05-29T11:02:21.950Z,60.41
2019-05-29T11:04:56.341Z,59.34
2019-05-29T11:07:25.628Z,58.08
2019-05-29T11:09:56.755Z,57.74
2019-05-29T11:12:28.513Z,56.09
2019-05-29T11:15:00.010Z,55.15
2019-05-29T11:17:31.060Z,53.27
2019-05-29T11:20:02.305Z,52.96
2019-05-29T11:22:33.264Z,51.54
2019-05-29T11:25:22.104Z,51.35
2019-05-29T11:27:37.002Z,51.89
2019-05-29T11:30:11.778Z,52.66
2019-05-29T11:32:47.139Z,51.68
2019-05-29T11:35:15.998Z,50.70
2019-05-29T11:37:47.316Z,50.60
2019-05-29T11:40:19.380Z,50.46
2019-05-29T11:42:50.834Z,50.90
2019-05-29T11:45:22.372Z,50.90
2019-05-29T11:47:54.699Z,51.24
2019-05-29T11:50:26.432Z,50.78
2019-05-29T11:52:58.554Z,50.93
2019-05-29T11:55:29.554Z,51.07
2019-05-29T11:58:02.017Z,52.14
2019-05-29T12:00:33.142Z,52.19
2019-05-29T12:03:03.427Z,52.89
2019-05-29T12:05:34.604Z,54.29
2019-05-29T12:08:05.719Z,54.55
2019-05-29T12:10:36.885Z,55.40
2019-05-29T12:13:07.879Z,55.13
2019-05-29T12:15:39.109Z,56.62
2019-05-29T12:18:22.794Z,56.52
2019-05-29T12:20:43.195Z,56.10
2019-05-29T12:23:25.866Z,59.66
2019-05-29T12:25:47.169Z,62.80
2019-05-29T12:28:18.156Z,62.41
2019-05-29T12:30:49.425Z,61.25
2019-05-29T12:33:20.446Z,58.77
2019-05-29T12:35:50.586Z,58.43
2019-05-29T12:38:21.899Z,58.54
2019-05-29T12:40:53.472Z,58.27
2019-05-29T12:43:27.754Z,57.51
2019-05-29T12:45:57.931Z,57.07
2019-05-29T12:48:29.295Z,57.19
2019-05-29T12:51:00.398Z,57.76
2019-05-29T12:53:33.030Z,56.52
2019-05-29T12:56:04.729Z,55.93
2019-05-29T12:58:36.055Z,54.14
2019-05-29T13:01:07.096Z,53.90
2019-05-29T13:03:40.499Z,53.47
2019-05-29T13:06:11.514Z,52.03
2019-05-29T13:08:41.721Z,51.63
2019-05-29T13:11:12.946Z,51.49
2019-05-29T13:13:43.900Z,51.20
2019-05-29T13:16:15.052Z,50.92
2019-05-29T13:18:46.099Z,48.63
2019-05-29T13:21:17.316Z,48.05
2019-05-29T13:23:48.517Z,45.28
2019-05-29T13:26:19.585Z,44.21
2019-05-29T13:28:50.549Z,41.48
2019-05-29T13:31:21.816Z,39.09
2019-05-29T13:33:52.955Z,38.99
2019-05-29T13:36:24.247Z,38.22
2019-05-29T13:38:55.977Z,38.22
2019-05-29T13:41:26.014Z,37.62
2019-05-29T13:44:00.706Z,37.83
2019-05-29T13:46:31.006Z,39.22
2019-05-29T13:49:05.396Z,39.11
2019-05-29T13:51:40.810Z,41.29
2019-05-29T13:54:17.530Z,43.06
2019-05-29T13:56:44.920Z,42.98
2019-05-29T13:59:15.915Z,40.58
2019-05-29T14:01:48.548Z,41.03
2019-05-29T14:04:19.915Z,41.36
2019-05-29T14:06:53.036Z,43.02
2019-05-29T14:09:23.981Z,44.79
2019-05-29T14:11:55.053Z,46.98
2019-05-29T14:14:26.325Z,51.98
2019-05-29T14:16:57.345Z,51.98
2019-05-29T14:19:27.512Z,51.00
2019-05-29T14:21:58.613Z,50.72
2019-05-29T14:24:30.494Z,51.09
2019-05-29T14:27:01.807Z,52.09
2019-05-29T14:29:32.881Z,51.80
2019-05-29T14:32:05.076Z,51.38
2019-05-29T14:34:36.174Z,50.60
2019-05-29T14:37:07.926Z,51.45
2019-05-29T14:39:39.165Z,50.53
2019-05-29T14:42:10.371Z,50.05
2019-05-29T14:44:41.334Z,50.30
2019-05-29T14:47:13.455Z,52.01
2019-05-29T14:49:44.443Z,54.75
2019-05-29T14:52:14.597Z,56.40
2019-05-29T14:54:45.767Z,57.80
2019-05-29T14:57:25.216Z,58.12
2019-05-29T14:59:50.633Z,58.25
2019-05-29T15:02:24.132Z,58.87
2019-05-29T15:04:54.502Z,59.12
2019-05-29T15:07:25.583Z,59.05
2019-05-29T15:09:56.778Z,59.27
2019-05-29T15:12:27.696Z,58.41
2019-05-29T15:14:58.879Z,58.59
2019-05-29T15:17:29.966Z,58.36
2019-05-29T15:20:01.247Z,58.28
2019-05-29T15:22:32.162Z,57.92
2019-05-29T15:25:12.356Z,58.03
2019-05-29T15:27:35.262Z,57.96
2019-05-29T15:30:08.561Z,56.88
2019-05-29T15:32:40.374Z,57.29
2019-05-29T15:35:14.897Z,57.27
2019-05-29T15:37:44.381Z,56.94
2019-05-29T15:40:16.928Z,56.55
2019-05-29T15:42:48.272Z,57.04
2019-05-29T15:45:20.807Z,57.15
2019-05-29T15:47:52.018Z,57.89
2019-05-29T15:50:23.036Z,58.42
2019-05-29T15:52:54.419Z,58.23
2019-05-29T15:55:33.930Z,58.38
2019-05-29T15:57:58.258Z,58.25
2019-05-29T16:00:29.239Z,58.72
2019-05-29T16:02:59.367Z,57.75
2019-05-29T16:05:30.635Z,56.70
2019-05-29T16:08:01.748Z,56.07
2019-05-29T16:10:32.943Z,55.87
2019-05-29T16:13:03.915Z,56.11
2019-05-29T16:15:35.154Z,55.58
2019-05-29T16:18:18.978Z,55.29
2019-05-29T16:20:39.350Z,56.21
2019-05-29T16:23:13.917Z,55.36
2019-05-29T16:25:44.887Z,55.94
2019-05-29T16:28:17.011Z,55.96
2019-05-29T16:30:48.684Z,56.17
2019-05-29T16:33:19.609Z,55.50
2019-05-29T16:35:49.771Z,55.65
2019-05-29T16:38:21.832Z,55.61
2019-05-29T16:40:52.831Z,54.95
2019-05-29T16:43:35.448Z,55.80
2019-05-29T16:46:15.419Z,54.63
2019-05-29T16:48:58.795Z,54.61
2019-05-29T16:51:35.868Z,54.81
2019-05-29T16:54:46.568Z,54.68
2019-05-29T16:57:24.786Z,54.47
2019-05-29T17:00:00.963Z,54.33
2019-05-29T17:02:40.030Z,54.56
2019-05-29T17:05:22.178Z,54.66
2019-05-29T17:08:06.172Z,54.96
2019-05-29T17:23:25.798Z,56.38
2019-05-29T17:29:53.138Z,55.65
2019-05-29T17:32:31.151Z,55.45
2019-05-29T17:38:47.167Z,52.67
2019-05-29T17:41:43.382Z,52.41
2019-05-29T17:44:32.289Z,51.97
2019-05-29T17:47:17.746Z,51.02
2019-05-29T17:54:37.984Z,50.49
2019-05-29T18:00:47.767Z,51.24
2019-05-29T18:14:27.945Z,53.46
2019-05-29T18:16:59.002Z,54.68
2019-05-29T18:19:29.816Z,55.65
2019-05-29T18:22:00.993Z,56.12
2019-05-29T18:24:31.964Z,56.70
2019-05-29T18:27:03.285Z,57.26
2019-05-29T18:29:34.191Z,57.28
2019-05-29T18:32:05.546Z,57.64
2019-05-29T18:34:36.676Z,57.86
2019-05-29T18:37:07.915Z,58.48
2019-05-29T18:39:38.853Z,58.42
2019-05-29T18:42:10.025Z,58.86
2019-05-29T18:44:41.397Z,59.61
2019-05-29T18:47:11.768Z,60.10
2019-05-29T18:49:42.964Z,60.53
2019-05-29T18:52:13.863Z,61.16
2019-05-29T18:54:44.968Z,61.77
2019-05-29T18:57:16.353Z,62.38
2019-05-29T18:59:47.457Z,62.90
2019-05-29T19:02:18.387Z,63.54
2019-05-29T19:04:49.808Z,63.71
2019-05-29T19:07:23.867Z,65.60
2019-05-29T19:09:56.058Z,66.00
2019-05-29T19:12:27.846Z,66.62
2019-05-29T19:14:59.208Z,67.04
2019-05-29T19:17:30.149Z,68.45
2019-05-29T19:20:00.154Z,68.10
2019-05-29T19:22:32.691Z,69.36
2019-05-29T19:25:05.606Z,69.63
2019-05-29T19:27:41.694Z,70.42
2019-05-29T19:30:09.912Z,70.67
2019-05-29T19:32:41.179Z,71.38
2019-05-29T19:35:12.607Z,72.12
2019-05-29T19:37:44.183Z,72.20
2019-05-29T19:40:17.560Z,72.20
2019-05-29T19:42:48.828Z,72.25
2019-05-29T19:45:20.242Z,72.70
2019-05-29T19:47:51.484Z,72.96
2019-05-29T19:50:22.329Z,73.64
2019-05-29T19:52:53.356Z,74.56
2019-05-29T19:55:25.532Z,75.30
2019-05-29T19:57:56.841Z,75.25
2019-05-29T20:00:28.141Z,75.80
2019-05-29T20:03:00.084Z,76.40
2019-05-29T20:05:31.122Z,76.63
2019-05-29T20:08:01.984Z,77.16
2019-05-29T20:10:33.439Z,76.92
2019-05-29T20:13:04.821Z,77.43
2019-05-29T20:15:36.145Z,77.78
2019-05-29T20:18:07.056Z,77.97
2019-05-29T20:20:38.723Z,78.64
2019-05-29T20:23:09.679Z,79.28
2019-05-29T20:25:40.802Z,79.32
2019-05-29T20:28:11.739Z,79.49
2019-05-29T20:30:42.721Z,80.05
2019-05-29T20:33:14.225Z,81.31
2019-05-29T20:35:45.079Z,81.02
2019-05-29T20:38:16.217Z,81.68
2019-05-29T20:40:47.087Z,83.15
2019-05-29T20:43:18.139Z,84.91
2019-05-29T20:45:48.979Z,85.70
2019-05-29T20:48:20.139Z,85.62
2019-05-29T20:50:51.033Z,86.69
2019-05-29T20:53:22.254Z,86.74
2019-05-29T20:55:53.095Z,87.56
2019-05-29T20:58:25.117Z,88.76
2019-05-29T21:00:56.049Z,88.30
2019-05-29T21:03:26.107Z,89.49
2019-05-29T21:05:57.103Z,89.39
2019-05-29T21:08:27.956Z,90.18
2019-05-29T21:10:59.145Z,91.07
2019-05-29T21:13:30.013Z,91.30
2019-05-29T21:16:01.397Z,91.51
2019-05-29T21:18:39.933Z,92.00
2019-05-29T21:21:38.301Z,92.38
2019-05-29T21:24:20.252Z,92.68
2019-05-29T21:27:01.229Z,93.36
2019-05-29T21:33:27.679Z,95.11
2019-05-29T21:36:08.043Z,96.54
2019-05-29T21:38:49.451Z,97.37
2019-05-29T21:41:28.405Z,97.41
2019-05-29T21:44:16.903Z,98.13
2019-05-29T21:46:59.368Z,99.15
2019-05-29T21:49:41.007Z,99.10
2019-05-29T21:52:22.239Z,98.71
2019-05-29T21:55:03.319Z,100.00
2019-05-29T21:57:47.145Z,100.00
2019-05-29T22:00:30.026Z,100.00
2019-05-29T22:03:11.110Z,100.00
2019-05-29T22:05:51.923Z,100.00
2019-05-29T22:08:37.178Z,100.00
2019-05-29T22:11:19.663Z,100.00
2019-05-29T22:14:01.753Z,100.00
2019-05-29T22:16:42.251Z,100.00
2019-05-29T22:19:24.975Z,100.00
2019-05-29T22:22:05.945Z,100.00
2019-05-29T22:24:47.106Z,100.00
2019-05-29T22:27:29.433Z,100.00
2019-05-29T22:30:27.900Z,100.00
2019-05-29T22:33:09.419Z,100.00
2019-05-29T22:35:52.701Z,100.00
2019-05-29T22:38:36.163Z,100.00
2019-05-29T22:41:18.842Z,100.00
2019-05-29T22:44:09.300Z,100.00
2019-05-29T22:46:53.726Z,100.00
2019-05-29T22:50:02.285Z,100.00
2019-05-29T22:52:47.313Z,100.00
2019-05-29T22:55:32.986Z,100.00
2019-05-29T22:58:19.613Z,100.00
2019-05-29T23:01:05.034Z,100.00
2019-05-29T23:03:52.023Z,100.00
2019-05-29T23:06:35.542Z,100.00
2019-05-29T23:09:23.918Z,100.00
2019-05-29T23:11:56.289Z,100.00
2019-05-29T23:14:27.180Z,100.00
2019-05-29T23:16:58.592Z,100.00
2019-05-29T23:19:29.662Z,100.00
2019-05-29T23:22:01.163Z,100.00
2019-05-29T23:24:32.105Z,100.00
2019-05-29T23:27:03.376Z,100.00
2019-05-29T23:29:47.914Z,100.00
2019-05-29T23:32:06.330Z,100.00
2019-05-29T23:34:37.732Z,100.00
2019-05-29T23:37:08.696Z,100.00
2019-05-29T23:39:39.916Z,100.00
2019-05-29T23:42:10.934Z,100.00
2019-05-29T23:44:43.960Z,100.00
2019-05-29T23:47:14.994Z,100.00
2019-05-29T23:49:46.121Z,100.00
2019-05-29T23:52:17.128Z,100.00
2019-05-29T23:54:48.378Z,100.00
2019-05-29T23:57:19.286Z,100.00
